Terminal Aerodrome Forecast
Issued by NWS

Home | Current Version | Previous Version | Text Only | Print | Product List | Glossary On
Versions: 1 2 3 4 5 6 7 8 9 10 11 12 13 14
106
FTUS43 KICT 310520
TAFHUT
TAF
KHUT 310520Z 3106/0106 15012KT P6SM VCTS BKN040CB
      TEMPO 3107/3110 -TSRA BKN040CB
     FM311800 02010KT P6SM VCTS BKN040CB=

USA.gov is the U.S. government's official web portal to all federal, state and local government web resources and services.